sensor_id;sensor_type;location;lat;lon;timestamp;pressure;altitude;pressure_sealevel;temperature;humidity
25420;BME280;13354;48.174;11.566;2023-08-12T00:00:05;96131.66;;;21.05;69.22
25420;BME280;13354;48.174;11.566;2023-08-12T00:02:40;96121.53;;;20.95;69.95
25420;BME280;13354;48.174;11.566;2023-08-12T00:05:06;96129.53;;;20.90;70.13
25420;BME280;13354;48.174;11.566;2023-08-12T00:07:36;96121.63;;;20.83;70.54
25420;BME280;13354;48.174;11.566;2023-08-12T00:10:03;96127.00;;;20.83;70.74
25420;BME280;13354;48.174;11.566;2023-08-12T00:12:30;96121.31;;;20.80;70.68
25420;BME280;13354;48.174;11.566;2023-08-12T00:14:56;96124.47;;;20.77;71.04
25420;BME280;13354;48.174;11.566;2023-08-12T00:17:21;96122.84;;;20.75;70.82
25420;BME280;13354;48.174;11.566;2023-08-12T00:19:47;96119.84;;;20.72;71.11
25420;BME280;13354;48.174;11.566;2023-08-12T00:22:12;96117.63;;;20.69;71.14
25420;BME280;13354;48.174;11.566;2023-08-12T00:24:38;96110.88;;;20.66;71.27
25420;BME280;13354;48.174;11.566;2023-08-12T00:27:03;96114.38;;;20.67;70.82
25420;BME280;13354;48.174;11.566;2023-08-12T00:29:29;96109.50;;;20.64;71.25
25420;BME280;13354;48.174;11.566;2023-08-12T00:31:54;96116.16;;;20.61;72.06
25420;BME280;13354;48.174;11.566;2023-08-12T00:34:21;96109.97;;;20.61;72.10
25420;BME280;13354;48.174;11.566;2023-08-12T00:36:46;96111.28;;;20.58;71.80
25420;BME280;13354;48.174;11.566;2023-08-12T00:39:11;96106.41;;;20.55;72.37
25420;BME280;13354;48.174;11.566;2023-08-12T00:41:37;96097.75;;;20.53;71.89
25420;BME280;13354;48.174;11.566;2023-08-12T00:44:02;96103.13;;;20.53;72.28
25420;BME280;13354;48.174;11.566;2023-08-12T00:46:28;96099.03;;;20.50;72.37
25420;BME280;13354;48.174;11.566;2023-08-12T00:48:53;96099.28;;;20.49;72.67
25420;BME280;13354;48.174;11.566;2023-08-12T00:51:19;96099.19;;;20.44;73.01
25420;BME280;13354;48.174;11.566;2023-08-12T00:53:46;96097.81;;;20.41;73.16
25420;BME280;13354;48.174;11.566;2023-08-12T00:56:11;96095.13;;;20.41;73.26
25420;BME280;13354;48.174;11.566;2023-08-12T00:58:38;96099.91;;;20.39;73.82
25420;BME280;13354;48.174;11.566;2023-08-12T01:01:04;96094.47;;;20.34;74.33
25420;BME280;13354;48.174;11.566;2023-08-12T01:03:30;96094.72;;;20.33;74.10
25420;BME280;13354;48.174;11.566;2023-08-12T01:05:55;96094.13;;;20.31;74.26
25420;BME280;13354;48.174;11.566;2023-08-12T01:08:31;96095.69;;;20.26;74.13
25420;BME280;13354;48.174;11.566;2023-08-12T01:11:21;96091.03;;;20.22;74.26
25420;BME280;13354;48.174;11.566;2023-08-12T01:14:03;96092.81;;;20.16;74.67
25420;BME280;13354;48.174;11.566;2023-08-12T01:16:33;96090.38;;;20.15;75.10
25420;BME280;13354;48.174;11.566;2023-08-12T01:19:04;96085.00;;;20.15;75.34
25420;BME280;13354;48.174;11.566;2023-08-12T01:21:31;96083.34;;;20.14;75.31
25420;BME280;13354;48.174;11.566;2023-08-12T01:23:57;96074.94;;;20.10;75.50
25420;BME280;13354;48.174;11.566;2023-08-12T01:26:23;96078.63;;;20.04;75.70
25420;BME280;13354;48.174;11.566;2023-08-12T01:28:48;96072.09;;;20.00;75.98
25420;BME280;13354;48.174;11.566;2023-08-12T01:31:23;96075.50;;;19.95;76.44
25420;BME280;13354;48.174;11.566;2023-08-12T01:34:03;96076.22;;;19.91;76.55
25420;BME280;13354;48.174;11.566;2023-08-12T01:36:34;96070.28;;;19.89;76.92
25420;BME280;13354;48.174;11.566;2023-08-12T01:39:01;96068.88;;;19.86;76.85
25420;BME280;13354;48.174;11.566;2023-08-12T01:41:26;96070.44;;;19.82;77.04
25420;BME280;13354;48.174;11.566;2023-08-12T01:43:52;96070.56;;;19.75;77.23
25420;BME280;13354;48.174;11.566;2023-08-12T01:46:18;96070.81;;;19.74;77.60
25420;BME280;13354;48.174;11.566;2023-08-12T01:48:43;96069.16;;;19.73;77.51
25420;BME280;13354;48.174;11.566;2023-08-12T01:51:08;96068.03;;;19.69;77.26
25420;BME280;13354;48.174;11.566;2023-08-12T01:53:34;96065.81;;;19.66;77.37
25420;BME280;13354;48.174;11.566;2023-08-12T01:55:59;96061.38;;;19.60;78.03
25420;BME280;13354;48.174;11.566;2023-08-12T01:58:25;96057.28;;;19.57;78.44
25420;BME280;13354;48.174;11.566;2023-08-12T02:00:52;96055.34;;;19.52;78.42
25420;BME280;13354;48.174;11.566;2023-08-12T02:03:17;96056.41;;;19.51;78.53
25420;BME280;13354;48.174;11.566;2023-08-12T02:05:42;96055.09;;;19.54;78.28
25420;BME280;13354;48.174;11.566;2023-08-12T02:08:08;96054.25;;;19.65;77.35
25420;BME280;13354;48.174;11.566;2023-08-12T02:10:34;96052.31;;;19.49;78.46
25420;BME280;13354;48.174;11.566;2023-08-12T02:12:59;96056.75;;;19.43;78.88
25420;BME280;13354;48.174;11.566;2023-08-12T02:15:24;96043.78;;;19.40;79.09
25420;BME280;13354;48.174;11.566;2023-08-12T02:17:50;96044.03;;;19.39;78.92
25420;BME280;13354;48.174;11.566;2023-08-12T02:20:15;96031.44;;;19.39;78.92
25420;BME280;13354;48.174;11.566;2023-08-12T02:22:40;96033.78;;;19.36;79.30
25420;BME280;13354;48.174;11.566;2023-08-12T02:25:06;96021.06;;;19.31;79.62
25420;BME280;13354;48.174;11.566;2023-08-12T02:27:31;96026.34;;;19.26;79.96
25420;BME280;13354;48.174;11.566;2023-08-12T02:29:57;96023.91;;;19.24;79.79
25420;BME280;13354;48.174;11.566;2023-08-12T02:32:22;96028.44;;;19.24;80.15
25420;BME280;13354;48.174;11.566;2023-08-12T02:34:47;96034.88;;;19.23;80.42
25420;BME280;13354;48.174;11.566;2023-08-12T02:37:13;96031.59;;;19.21;80.25
25420;BME280;13354;48.174;11.566;2023-08-12T02:39:38;96029.97;;;19.20;80.25
25420;BME280;13354;48.174;11.566;2023-08-12T02:42:04;96032.06;;;19.18;80.20
25420;BME280;13354;48.174;11.566;2023-08-12T02:44:30;96027.22;;;19.15;80.46
25420;BME280;13354;48.174;11.566;2023-08-12T02:46:55;96018.81;;;19.11;80.69
25420;BME280;13354;48.174;11.566;2023-08-12T02:49:20;96019.75;;;19.05;80.77
25420;BME280;13354;48.174;11.566;2023-08-12T02:51:46;96019.28;;;19.08;80.68
25420;BME280;13354;48.174;11.566;2023-08-12T02:54:11;96013.78;;;19.03;80.99
25420;BME280;13354;48.174;11.566;2023-08-12T02:56:37;96014.50;;;18.98;81.57
25420;BME280;13354;48.174;11.566;2023-08-12T02:59:02;96007.38;;;18.92;81.66
25420;BME280;13354;48.174;11.566;2023-08-12T03:01:28;96007.16;;;18.94;81.65
25420;BME280;13354;48.174;11.566;2023-08-12T03:03:54;96003.34;;;18.90;81.94
25420;BME280;13354;48.174;11.566;2023-08-12T03:06:19;96003.81;;;18.87;82.34
25420;BME280;13354;48.174;11.566;2023-08-12T03:08:45;96008.91;;;18.88;82.57
25420;BME280;13354;48.174;11.566;2023-08-12T03:11:10;96011.84;;;18.87;82.54
25420;BME280;13354;48.174;11.566;2023-08-12T03:13:36;96015.47;;;18.80;82.87
25420;BME280;13354;48.174;11.566;2023-08-12T03:16:01;96009.06;;;18.81;82.92
25420;BME280;13354;48.174;11.566;2023-08-12T03:18:26;96010.44;;;18.84;82.96
25420;BME280;13354;48.174;11.566;2023-08-12T03:20:51;96012.06;;;18.85;82.67
25420;BME280;13354;48.174;11.566;2023-08-12T03:23:17;96011.50;;;18.83;82.50
25420;BME280;13354;48.174;11.566;2023-08-12T03:25:42;96008.47;;;18.79;82.34
25420;BME280;13354;48.174;11.566;2023-08-12T03:28:07;96006.25;;;18.65;82.80
25420;BME280;13354;48.174;11.566;2023-08-12T03:30:33;96011.16;;;18.68;82.69
25420;BME280;13354;48.174;11.566;2023-08-12T03:32:58;96011.84;;;18.63;83.10
25420;BME280;13354;48.174;11.566;2023-08-12T03:35:24;96011.63;;;18.65;82.94
25420;BME280;13354;48.174;11.566;2023-08-12T03:37:49;96011.50;;;18.59;83.24
25420;BME280;13354;48.174;11.566;2023-08-12T03:40:16;96013.94;;;18.61;83.27
25420;BME280;13354;48.174;11.566;2023-08-12T03:42:41;96016.28;;;18.57;83.35
25420;BME280;13354;48.174;11.566;2023-08-12T03:45:07;96010.09;;;18.57;83.59
25420;BME280;13354;48.174;11.566;2023-08-12T03:47:32;96008.59;;;18.49;83.72
25420;BME280;13354;48.174;11.566;2023-08-12T03:49:58;96006.13;;;18.48;83.85
25420;BME280;13354;48.174;11.566;2023-08-12T03:52:23;96004.16;;;18.43;84.04
25420;BME280;13354;48.174;11.566;2023-08-12T03:54:48;96003.59;;;18.41;84.12
25420;BME280;13354;48.174;11.566;2023-08-12T03:57:14;96006.03;;;18.43;84.62
25420;BME280;13354;48.174;11.566;2023-08-12T03:59:39;96002.75;;;18.41;84.64
25420;BME280;13354;48.174;11.566;2023-08-12T04:02:05;96005.91;;;18.38;84.90
25420;BME280;13354;48.174;11.566;2023-08-12T04:04:31;96001.81;;;18.35;85.09
25420;BME280;13354;48.174;11.566;2023-08-12T04:06:56;96006.38;;;18.34;84.91
25420;BME280;13354;48.174;11.566;2023-08-12T04:09:21;95998.78;;;18.31;84.91
25420;BME280;13354;48.174;11.566;2023-08-12T04:11:47;95999.03;;;18.30;84.97
25420;BME280;13354;48.174;11.566;2023-08-12T04:14:13;96007.75;;;18.25;84.76
25420;BME280;13354;48.174;11.566;2023-08-12T04:16:38;96006.72;;;18.26;85.15
25420;BME280;13354;48.174;11.566;2023-08-12T04:19:04;96002.19;;;18.27;84.97
25420;BME280;13354;48.174;11.566;2023-08-12T04:21:29;96007.19;;;18.23;85.06
25420;BME280;13354;48.174;11.566;2023-08-12T04:23:54;96004.16;;;18.20;85.15
25420;BME280;13354;48.174;11.566;2023-08-12T04:26:20;96004.59;;;18.17;85.73
25420;BME280;13354;48.174;11.566;2023-08-12T04:28:46;96005.44;;;18.17;86.15
25420;BME280;13354;48.174;11.566;2023-08-12T04:31:11;96007.03;;;18.18;86.29
25420;BME280;13354;48.174;11.566;2023-08-12T04:33:36;96008.69;;;18.19;86.54
25420;BME280;13354;48.174;11.566;2023-08-12T04:36:02;96007.66;;;18.20;86.41
25420;BME280;13354;48.174;11.566;2023-08-12T04:38:27;96008.91;;;18.18;86.66
25420;BME280;13354;48.174;11.566;2023-08-12T04:40:53;96006.03;;;18.19;86.56
25420;BME280;13354;48.174;11.566;2023-08-12T04:43:19;96014.41;;;18.23;86.66
25420;BME280;13354;48.174;11.566;2023-08-12T04:45:45;96014.78;;;18.26;86.69
25420;BME280;13354;48.174;11.566;2023-08-12T04:48:11;96014.78;;;18.26;86.51
25420;BME280;13354;48.174;11.566;2023-08-12T04:50:37;96017.56;;;18.31;86.48
25420;BME280;13354;48.174;11.566;2023-08-12T04:53:03;96020.00;;;18.33;86.04
25420;BME280;13354;48.174;11.566;2023-08-12T04:55:30;96012.31;;;18.37;86.30
25420;BME280;13354;48.174;11.566;2023-08-12T04:57:55;96014.31;;;18.41;86.40
25420;BME280;13354;48.174;11.566;2023-08-12T05:00:21;96019.53;;;18.48;85.68
25420;BME280;13354;48.174;11.566;2023-08-12T05:02:46;96011.84;;;18.51;86.02
25420;BME280;13354;48.174;11.566;2023-08-12T05:05:12;96014.66;;;18.56;85.81
25420;BME280;13354;48.174;11.566;2023-08-12T05:07:38;96015.22;;;18.58;85.88
25420;BME280;13354;48.174;11.566;2023-08-12T05:10:03;96004.84;;;18.62;85.86
25420;BME280;13354;48.174;11.566;2023-08-12T05:12:29;96010.56;;;18.66;85.64
25420;BME280;13354;48.174;11.566;2023-08-12T05:14:54;96004.97;;;18.67;85.70
25420;BME280;13354;48.174;11.566;2023-08-12T05:17:20;96006.25;;;18.76;85.16
25420;BME280;13354;48.174;11.566;2023-08-12T05:19:45;96002.31;;;18.79;85.34
25420;BME280;13354;48.174;11.566;2023-08-12T05:22:11;96006.59;;;18.80;85.55
25420;BME280;13354;48.174;11.566;2023-08-12T05:24:36;96000.78;;;18.83;85.60
25420;BME280;13354;48.174;11.566;2023-08-12T05:27:02;96000.53;;;18.85;85.32
25420;BME280;13354;48.174;11.566;2023-08-12T05:29:28;96005.91;;;18.96;84.19
25420;BME280;13354;48.174;11.566;2023-08-12T05:31:53;95998.63;;;19.09;83.59
25420;BME280;13354;48.174;11.566;2023-08-12T05:34:18;96003.88;;;19.15;82.94
25420;BME280;13354;48.174;11.566;2023-08-12T05:36:44;96000.06;;;19.28;81.84
25420;BME280;13354;48.174;11.566;2023-08-12T05:39:09;96007.03;;;19.41;80.98
25420;BME280;13354;48.174;11.566;2023-08-12T05:41:34;96004.38;;;19.41;81.44
25420;BME280;13354;48.174;11.566;2023-08-12T05:44:00;96013.31;;;19.46;79.60
25420;BME280;13354;48.174;11.566;2023-08-12T05:46:25;96005.38;;;19.51;80.14
25420;BME280;13354;48.174;11.566;2023-08-12T05:48:50;96013.25;;;19.58;78.95
25420;BME280;13354;48.174;11.566;2023-08-12T05:51:16;96010.81;;;19.57;79.63
25420;BME280;13354;48.174;11.566;2023-08-12T05:53:41;96009.75;;;19.58;79.76
25420;BME280;13354;48.174;11.566;2023-08-12T05:56:06;96006.25;;;19.57;80.08
25420;BME280;13354;48.174;11.566;2023-08-12T05:58:32;96007.31;;;19.68;79.39
25420;BME280;13354;48.174;11.566;2023-08-12T06:00:57;96015.28;;;19.79;78.70
25420;BME280;13354;48.174;11.566;2023-08-12T06:03:22;96011.88;;;19.84;78.25
25420;BME280;13354;48.174;11.566;2023-08-12T06:05:48;96018.50;;;19.93;77.89
25420;BME280;13354;48.174;11.566;2023-08-12T06:08:14;96018.34;;;20.00;77.64
25420;BME280;13354;48.174;11.566;2023-08-12T06:10:39;96014.03;;;20.16;76.67
25420;BME280;13354;48.174;11.566;2023-08-12T06:13:05;96002.56;;;20.37;75.62
25420;BME280;13354;48.174;11.566;2023-08-12T06:15:30;96007.44;;;20.57;73.25
25420;BME280;13354;48.174;11.566;2023-08-12T06:17:56;96000.28;;;20.63;73.59
25420;BME280;13354;48.174;11.566;2023-08-12T06:20:23;95996.66;;;20.74;73.12
25420;BME280;13354;48.174;11.566;2023-08-12T06:22:48;96006.34;;;20.75;73.13
25420;BME280;13354;48.174;11.566;2023-08-12T06:25:14;95999.88;;;21.15;70.25
25420;BME280;13354;48.174;11.566;2023-08-12T06:27:39;95998.16;;;21.31;70.33
25420;BME280;13354;48.174;11.566;2023-08-12T06:30:05;95998.63;;;21.44;68.79
25420;BME280;13354;48.174;11.566;2023-08-12T06:32:31;95999.38;;;21.62;67.47
25420;BME280;13354;48.174;11.566;2023-08-12T06:34:56;95996.31;;;21.80;66.68
25420;BME280;13354;48.174;11.566;2023-08-12T06:37:22;95996.38;;;21.90;65.76
25420;BME280;13354;48.174;11.566;2023-08-12T06:39:47;95997.06;;;22.03;65.12
25420;BME280;13354;48.174;11.566;2023-08-12T06:42:12;95997.63;;;22.37;64.06
25420;BME280;13354;48.174;11.566;2023-08-12T06:44:38;95999.09;;;22.55;63.24
25420;BME280;13354;48.174;11.566;2023-08-12T06:47:03;95998.63;;;23.10;62.21
25420;BME280;13354;48.174;11.566;2023-08-12T06:49:29;95995.72;;;23.27;61.21
25420;BME280;13354;48.174;11.566;2023-08-12T06:51:54;95989.84;;;23.56;60.26
25420;BME280;13354;48.174;11.566;2023-08-12T06:54:19;95988.34;;;23.91;59.55
25420;BME280;13354;48.174;11.566;2023-08-12T06:56:47;95980.22;;;24.11;59.55
25420;BME280;13354;48.174;11.566;2023-08-12T06:59:13;95969.38;;;25.47;56.40
25420;BME280;13354;48.174;11.566;2023-08-12T07:01:38;95971.78;;;26.67;52.11
25420;BME280;13354;48.174;11.566;2023-08-12T07:04:04;95967.22;;;27.96;48.83
25420;BME280;13354;48.174;11.566;2023-08-12T07:06:29;95974.16;;;28.40;47.82
25420;BME280;13354;48.174;11.566;2023-08-12T07:08:54;95973.34;;;29.55;44.35
25420;BME280;13354;48.174;11.566;2023-08-12T07:11:21;95969.00;;;29.54;44.38
25420;BME280;13354;48.174;11.566;2023-08-12T07:13:46;95978.78;;;29.55;43.26
25420;BME280;13354;48.174;11.566;2023-08-12T07:16:11;95981.75;;;29.03;44.39
25420;BME280;13354;48.174;11.566;2023-08-12T07:18:37;95965.22;;;29.77;43.40
25420;BME280;13354;48.174;11.566;2023-08-12T07:21:02;95968.81;;;30.68;42.44
25420;BME280;13354;48.174;11.566;2023-08-12T07:23:28;95965.97;;;31.13;41.05
25420;BME280;13354;48.174;11.566;2023-08-12T07:25:54;95965.44;;;31.42;40.15
25420;BME280;13354;48.174;11.566;2023-08-12T07:28:20;95969.53;;;31.22;39.94
25420;BME280;13354;48.174;11.566;2023-08-12T07:30:45;95968.38;;;31.71;39.30
25420;BME280;13354;48.174;11.566;2023-08-12T07:33:10;95967.38;;;31.59;39.37
25420;BME280;13354;48.174;11.566;2023-08-12T07:35:36;95964.19;;;31.57;39.11
25420;BME280;13354;48.174;11.566;2023-08-12T07:38:01;95965.69;;;31.23;39.41
25420;BME280;13354;48.174;11.566;2023-08-12T07:40:26;95958.53;;;31.62;39.52
25420;BME280;13354;48.174;11.566;2023-08-12T07:42:52;95961.44;;;31.74;39.48
25420;BME280;13354;48.174;11.566;2023-08-12T07:45:17;95965.63;;;31.06;39.74
25420;BME280;13354;48.174;11.566;2023-08-12T07:47:43;95967.81;;;30.19;41.26
25420;BME280;13354;48.174;11.566;2023-08-12T07:50:09;95980.19;;;30.39;41.92
25420;BME280;13354;48.174;11.566;2023-08-12T07:52:34;95965.63;;;30.52;41.42
25420;BME280;13354;48.174;11.566;2023-08-12T07:55:01;95969.13;;;30.44;41.58
25420;BME280;13354;48.174;11.566;2023-08-12T07:57:26;95972.09;;;30.33;41.70
25420;BME280;13354;48.174;11.566;2023-08-12T07:59:51;95972.75;;;30.30;41.86
25420;BME280;13354;48.174;11.566;2023-08-12T08:02:22;95964.81;;;29.84;42.39
25420;BME280;13354;48.174;11.566;2023-08-12T08:04:48;95970.66;;;30.14;42.18
25420;BME280;13354;48.174;11.566;2023-08-12T08:07:17;95970.09;;;30.03;42.35
25420;BME280;13354;48.174;11.566;2023-08-12T08:09:43;95977.88;;;29.46;43.83
25420;BME280;13354;48.174;11.566;2023-08-12T08:12:09;95976.28;;;29.31;43.92
25420;BME280;13354;48.174;11.566;2023-08-12T08:14:36;95971.34;;;29.33;44.63
25420;BME280;13354;48.174;11.566;2023-08-12T08:17:01;95965.25;;;29.64;44.37
25420;BME280;13354;48.174;11.566;2023-08-12T08:19:27;95960.09;;;29.76;43.87
25420;BME280;13354;48.174;11.566;2023-08-12T08:21:52;95964.03;;;30.06;43.55
25420;BME280;13354;48.174;11.566;2023-08-12T08:24:18;95958.94;;;29.91;43.30
25420;BME280;13354;48.174;11.566;2023-08-12T08:26:43;95955.66;;;30.02;43.65
25420;BME280;13354;48.174;11.566;2023-08-12T08:29:11;95961.03;;;29.94;43.21
25420;BME280;13354;48.174;11.566;2023-08-12T08:31:36;95962.44;;;29.41;44.58
25420;BME280;13354;48.174;11.566;2023-08-12T08:34:02;95952.25;;;29.60;43.50
25420;BME280;13354;48.174;11.566;2023-08-12T08:36:27;95956.25;;;29.49;44.14
25420;BME280;13354;48.174;11.566;2023-08-12T08:38:52;95963.63;;;29.49;43.77
25420;BME280;13354;48.174;11.566;2023-08-12T08:41:19;95969.75;;;29.18;45.02
25420;BME280;13354;48.174;11.566;2023-08-12T08:43:47;95967.28;;;29.44;44.55
25420;BME280;13354;48.174;11.566;2023-08-12T08:46:14;95967.69;;;29.65;44.45
25420;BME280;13354;48.174;11.566;2023-08-12T08:48:41;95965.34;;;29.72;44.54
25420;BME280;13354;48.174;11.566;2023-08-12T08:51:08;95964.13;;;30.01;44.33
25420;BME280;13354;48.174;11.566;2023-08-12T08:53:38;95964.03;;;30.06;44.48
25420;BME280;13354;48.174;11.566;2023-08-12T08:56:08;95965.91;;;30.42;44.22
25420;BME280;13354;48.174;11.566;2023-08-12T08:58:37;95964.28;;;30.41;43.79
25420;BME280;13354;48.174;11.566;2023-08-12T09:01:05;95975.72;;;30.43;44.06
25420;BME280;13354;48.174;11.566;2023-08-12T09:03:32;95973.22;;;30.32;43.90
25420;BME280;13354;48.174;11.566;2023-08-12T09:05:58;95973.38;;;30.27;43.57
25420;BME280;13354;48.174;11.566;2023-08-12T09:08:25;95969.38;;;29.75;44.97
25420;BME280;13354;48.174;11.566;2023-08-12T09:10:52;95972.53;;;29.68;44.90
25420;BME280;13354;48.174;11.566;2023-08-12T09:13:19;95970.22;;;29.62;44.95
25420;BME280;13354;48.174;11.566;2023-08-12T09:15:44;95981.66;;;29.22;46.27
25420;BME280;13354;48.174;11.566;2023-08-12T09:18:10;95976.59;;;29.16;45.73
25420;BME280;13354;48.174;11.566;2023-08-12T09:20:36;95974.41;;;28.71;47.19
25420;BME280;13354;48.174;11.566;2023-08-12T09:23:02;95976.13;;;28.67;47.15
25420;BME280;13354;48.174;11.566;2023-08-12T09:25:28;95984.38;;;28.48;47.65
25420;BME280;13354;48.174;11.566;2023-08-12T09:27:55;95978.38;;;28.13;49.30
25420;BME280;13354;48.174;11.566;2023-08-12T09:30:21;95975.66;;;28.13;48.81
25420;BME280;13354;48.174;11.566;2023-08-12T09:33:04;95980.06;;;28.09;48.37
25420;BME280;13354;48.174;11.566;2023-08-12T09:35:40;95975.28;;;28.01;48.83
25420;BME280;13354;48.174;11.566;2023-08-12T09:38:07;95980.63;;;28.25;48.98
25420;BME280;13354;48.174;11.566;2023-08-12T09:40:34;95975.31;;;28.34;48.51
25420;BME280;13354;48.174;11.566;2023-08-12T09:43:00;95975.09;;;28.49;48.28
25420;BME280;13354;48.174;11.566;2023-08-12T09:45:26;95977.75;;;28.68;47.90
25420;BME280;13354;48.174;11.566;2023-08-12T09:47:52;95977.66;;;28.73;48.15
25420;BME280;13354;48.174;11.566;2023-08-12T09:50:24;95988.66;;;28.82;48.13
25420;BME280;13354;48.174;11.566;2023-08-12T09:52:51;95982.88;;;29.02;47.22
25420;BME280;13354;48.174;11.566;2023-08-12T09:55:18;95982.44;;;28.95;47.34
25420;BME280;13354;48.174;11.566;2023-08-12T09:57:44;95983.75;;;28.84;47.44
25420;BME280;13354;48.174;11.566;2023-08-12T10:00:12;95973.44;;;28.81;48.15
25420;BME280;13354;48.174;11.566;2023-08-12T10:02:45;95976.38;;;28.84;47.94
25420;BME280;13354;48.174;11.566;2023-08-12T10:05:14;95977.31;;;28.61;48.55
25420;BME280;13354;48.174;11.566;2023-08-12T10:07:41;95968.75;;;28.68;49.32
25420;BME280;13354;48.174;11.566;2023-08-12T10:10:06;95965.34;;;28.89;48.86
25420;BME280;13354;48.174;11.566;2023-08-12T10:12:33;95962.56;;;29.22;48.37
25420;BME280;13354;48.174;11.566;2023-08-12T10:15:00;95967.63;;;29.29;48.20
25420;BME280;13354;48.174;11.566;2023-08-12T10:17:25;95960.59;;;29.64;48.13
25420;BME280;13354;48.174;11.566;2023-08-12T10:19:57;95965.69;;;29.93;47.13
25420;BME280;13354;48.174;11.566;2023-08-12T10:22:25;95959.53;;;29.88;46.43
25420;BME280;13354;48.174;11.566;2023-08-12T10:24:51;95968.56;;;29.74;46.25
25420;BME280;13354;48.174;11.566;2023-08-12T10:27:17;95958.81;;;29.59;46.37
25420;BME280;13354;48.174;11.566;2023-08-12T10:29:43;95966.25;;;30.04;45.66
25420;BME280;13354;48.174;11.566;2023-08-12T10:32:09;95964.72;;;30.34;45.27
25420;BME280;13354;48.174;11.566;2023-08-12T10:34:34;95963.66;;;30.44;43.74
25420;BME280;13354;48.174;11.566;2023-08-12T10:37:01;95964.72;;;30.34;44.67
25420;BME280;13354;48.174;11.566;2023-08-12T10:39:27;95970.19;;;30.34;44.42
25420;BME280;13354;48.174;11.566;2023-08-12T10:41:56;95969.53;;;30.28;44.52
25420;BME280;13354;48.174;11.566;2023-08-12T10:44:26;95953.53;;;30.44;45.20
25420;BME280;13354;48.174;11.566;2023-08-12T10:46:52;95954.06;;;30.77;45.00
25420;BME280;13354;48.174;11.566;2023-08-12T10:49:21;95950.69;;;31.20;43.68
25420;BME280;13354;48.174;11.566;2023-08-12T10:51:53;95956.47;;;31.67;41.32
25420;BME280;13354;48.174;11.566;2023-08-12T10:54:28;95953.63;;;31.90;39.82
25420;BME280;13354;48.174;11.566;2023-08-12T11:02:23;95945.69;;;32.23;38.32
25420;BME280;13354;48.174;11.566;2023-08-12T11:04:51;95944.06;;;32.48;38.56
25420;BME280;13354;48.174;11.566;2023-08-12T11:07:18;95939.16;;;32.71;38.05
25420;BME280;13354;48.174;11.566;2023-08-12T11:09:45;95939.41;;;32.49;38.72
25420;BME280;13354;48.174;11.566;2023-08-12T11:12:11;95938.97;;;32.76;37.21
25420;BME280;13354;48.174;11.566;2023-08-12T11:14:57;95932.09;;;32.61;37.47
25420;BME280;13354;48.174;11.566;2023-08-12T11:17:49;95932.28;;;32.56;37.18
25420;BME280;13354;48.174;11.566;2023-08-12T11:20:15;95933.03;;;32.65;37.62
25420;BME280;13354;48.174;11.566;2023-08-12T11:22:43;95940.47;;;32.74;36.54
25420;BME280;13354;48.174;11.566;2023-08-12T11:25:13;95937.38;;;32.75;36.96
25420;BME280;13354;48.174;11.566;2023-08-12T11:27:41;95932.28;;;32.47;36.17
25420;BME280;13354;48.174;11.566;2023-08-12T11:30:07;95938.56;;;32.39;37.17
25420;BME280;13354;48.174;11.566;2023-08-12T11:32:34;95932.28;;;32.47;37.86
25420;BME280;13354;48.174;11.566;2023-08-12T11:34:59;95923.91;;;32.44;37.37
25420;BME280;13354;48.174;11.566;2023-08-12T11:37:24;95922.19;;;32.22;37.36
25420;BME280;13354;48.174;11.566;2023-08-12T11:39:53;95915.88;;;32.21;38.33
25420;BME280;13354;48.174;11.566;2023-08-12T11:42:18;95911.34;;;32.26;37.81
25420;BME280;13354;48.174;11.566;2023-08-12T11:44:43;95912.19;;;32.26;38.96
25420;BME280;13354;48.174;11.566;2023-08-12T11:47:09;95910.91;;;32.15;40.07
25420;BME280;13354;48.174;11.566;2023-08-12T11:49:34;95906.84;;;32.30;41.37
25420;BME280;13354;48.174;11.566;2023-08-12T11:51:59;95902.34;;;32.42;39.61
25420;BME280;13354;48.174;11.566;2023-08-12T11:54:25;95909.22;;;32.57;38.00
25420;BME280;13354;48.174;11.566;2023-08-12T11:56:51;95913.28;;;32.34;38.27
25420;BME280;13354;48.174;11.566;2023-08-12T11:59:17;95908.44;;;32.39;38.54
25420;BME280;13354;48.174;11.566;2023-08-12T12:01:46;95904.34;;;32.71;37.79
25420;BME280;13354;48.174;11.566;2023-08-12T12:04:14;95907.66;;;32.94;38.82
25420;BME280;13354;48.174;11.566;2023-08-12T12:06:39;95900.41;;;33.19;38.77
25420;BME280;13354;48.174;11.566;2023-08-12T12:09:08;95910.94;;;33.38;36.78
25420;BME280;13354;48.174;11.566;2023-08-12T12:11:38;95894.16;;;33.70;35.38
25420;BME280;13354;48.174;11.566;2023-08-12T12:14:05;95895.00;;;33.61;37.00
25420;BME280;13354;48.174;11.566;2023-08-12T12:16:40;95891.53;;;33.52;35.84
25420;BME280;13354;48.174;11.566;2023-08-12T12:19:09;95899.13;;;33.47;36.36
25420;BME280;13354;48.174;11.566;2023-08-12T12:21:39;95894.69;;;33.33;36.77
25420;BME280;13354;48.174;11.566;2023-08-12T12:24:05;95888.16;;;33.47;37.36
25420;BME280;13354;48.174;11.566;2023-08-12T12:26:32;95882.13;;;33.53;37.89
25420;BME280;13354;48.174;11.566;2023-08-12T12:28:57;95877.53;;;33.66;37.45
25420;BME280;13354;48.174;11.566;2023-08-12T12:31:22;95894.06;;;33.28;36.92
25420;BME280;13354;48.174;11.566;2023-08-12T12:33:48;95889.06;;;33.00;36.88
25420;BME280;13354;48.174;11.566;2023-08-12T12:36:13;95893.72;;;32.70;38.65
25420;BME280;13354;48.174;11.566;2023-08-12T12:38:38;95894.13;;;32.81;37.84
25420;BME280;13354;48.174;11.566;2023-08-12T12:41:03;95882.38;;;33.10;37.83
25420;BME280;13354;48.174;11.566;2023-08-12T12:43:29;95878.53;;;33.32;36.52
25420;BME280;13354;48.174;11.566;2023-08-12T12:45:54;95882.19;;;33.45;36.56
25420;BME280;13354;48.174;11.566;2023-08-12T12:48:19;95888.84;;;33.35;36.05
25420;BME280;13354;48.174;11.566;2023-08-12T12:50:45;95876.28;;;33.34;36.57